Lucky Trader — HOGJ — position and weather

sailwx.info

Track history (hours):
 
Tides and Currents Weather Stations Pressure Air Temp Water Temp Dewpoint Dewpoint Depression Visibility Wind Speed Wind Dir Waves Ship Positions

Lucky Trader

Last reported at 2017-Sep-30 02:00 UTC. Time now 2017-Oct-22 04:47 UTC.
Position N 28°42' W 014°38'.
Warning: this ship's position is 22 days out of date.

Length 154 m; draft 9.3 m.

Type: Cargo ship. MMSI: 374533000.

Date/timePositionNaut miles runAvg speedWind from/ knotsBaromVisibWave heightAir tempDewpointWater temp
2017-Sep-30 02:00N 28°42' W 014°38'5210.9
2017-Sep-29 21:15N 29°18' W 013°56'1310.8
2017-Sep-29 20:02N 29°27' W 013°45'010.7
2017-Sep-29 20:00N 29°27' W 013°45'611.0
2017-Sep-29 19:29N 29°31' W 013°40'1310.7
2017-Sep-29 18:19N 29°40' W 013°30'  
2017-Sep-27 11:49N 35°58' W 005°36'5 9.6
2017-Sep-27 11:18N 35°59' W 005°31'3 9.2
2017-Sep-27 11:01N 35°59' W 005°27'5 9.9
2017-Sep-27 10:30N 36°01' W 005°21'510.8
2017-Sep-27 10:00N 36°02' W 005°15'37411.1
2017-Sep-26 00:27N 36°55' E 002°25'511.2
2017-Sep-26 00:00N 36°56' E 002°31'611.3
2017-Sep-25 23:30N 36°56' E 002°38'611.0
2017-Sep-25 23:00N 36°57' E 002°45'510.8
2017-Sep-25 22:30N 36°57' E 002°52'610.9
2017-Sep-25 22:00N 36°58' E 002°59'5 9.5
2017-Sep-25 21:30N 36°56' E 003°04'611.5
2017-Sep-25 20:58N 36°50' E 003°05'3 0.6
2017-Sep-25 15:40N 36°47' E 003°05'0 0.0
2017-Sep-25 15:22N 36°47' E 003°05'0 0.0
2017-Sep-25 14:40N 36°47' E 003°05'0 0.0
2017-Sep-25 14:13N 36°47' E 003°05'0 0.0
2017-Sep-25 13:52N 36°47' E 003°05'0 0.0
2017-Sep-25 13:19N 36°47' E 003°05'0 0.3
2017-Sep-25 12:25N 36°47' E 003°05'1 1.8
2017-Sep-25 11:54N 36°48' E 003°05'0 0.0
2017-Sep-25 11:30N 36°48' E 003°05'0 0.0
2017-Sep-25 04:36N 36°48' E 003°05'0 0.0
2017-Sep-25 04:18N 36°48' E 003°05'0 0.0
2017-Sep-25 04:00N 36°48' E 003°05'0 0.0
2017-Sep-25 03:00N 36°48' E 003°05'0 0.0
2017-Sep-25 02:30N 36°48' E 003°05'0 0.0
2017-Sep-25 01:24N 36°48' E 003°05'0 0.0
2017-Sep-25 01:00N 36°48' E 003°05'0 0.0
2017-Sep-24 23:54N 36°48' E 003°05'0 0.0
2017-Sep-24 23:24N 36°48' E 003°05'0 0.0
2017-Sep-24 23:00N 36°48' E 003°05'  
Track history (hours):
 
Tides and Currents Weather Stations Pressure Air Temp Water Temp Dewpoint Dewpoint Depression Visibility Wind Speed Wind Dir Waves Ship Positions

Lucky Trader

Last reported at 2017-Sep-30 02:00 UTC. Time now 2017-Oct-22 04:47 UTC.
Position N 28°42' W 014°38'.
Warning: this ship's position is 22 days out of date.

Length 154 m; draft 9.3 m.

Type: Cargo ship. MMSI: 374533000.

Date/timePositionNaut miles runAvg speedWind from/ knotsBaromVisibWave heightAir tempDewpointWater temp
2017-Sep-30 02:00N 28°42' W 014°38'5210.9
2017-Sep-29 21:15N 29°18' W 013°56'1310.8
2017-Sep-29 20:02N 29°27' W 013°45'010.7
2017-Sep-29 20:00N 29°27' W 013°45'611.0
2017-Sep-29 19:29N 29°31' W 013°40'1310.7
2017-Sep-29 18:19N 29°40' W 013°30'  
2017-Sep-27 11:49N 35°58' W 005°36'5 9.6
2017-Sep-27 11:18N 35°59' W 005°31'3 9.2
2017-Sep-27 11:01N 35°59' W 005°27'5 9.9
2017-Sep-27 10:30N 36°01' W 005°21'510.8
2017-Sep-27 10:00N 36°02' W 005°15'37411.1
2017-Sep-26 00:27N 36°55' E 002°25'511.2
2017-Sep-26 00:00N 36°56' E 002°31'611.3
2017-Sep-25 23:30N 36°56' E 002°38'611.0
2017-Sep-25 23:00N 36°57' E 002°45'510.8
2017-Sep-25 22:30N 36°57' E 002°52'610.9
2017-Sep-25 22:00N 36°58' E 002°59'5 9.5
2017-Sep-25 21:30N 36°56' E 003°04'611.5
2017-Sep-25 20:58N 36°50' E 003°05'3 0.6
2017-Sep-25 15:40N 36°47' E 003°05'0 0.0
2017-Sep-25 15:22N 36°47' E 003°05'0 0.0
2017-Sep-25 14:40N 36°47' E 003°05'0 0.0
2017-Sep-25 14:13N 36°47' E 003°05'0 0.0
2017-Sep-25 13:52N 36°47' E 003°05'0 0.0
2017-Sep-25 13:19N 36°47' E 003°05'0 0.3
2017-Sep-25 12:25N 36°47' E 003°05'1 1.8
2017-Sep-25 11:54N 36°48' E 003°05'0 0.0
2017-Sep-25 11:30N 36°48' E 003°05'0 0.0
2017-Sep-25 04:36N 36°48' E 003°05'0 0.0
2017-Sep-25 04:18N 36°48' E 003°05'0 0.0
2017-Sep-25 04:00N 36°48' E 003°05'0 0.0
2017-Sep-25 03:00N 36°48' E 003°05'0 0.0
2017-Sep-25 02:30N 36°48' E 003°05'0 0.0
2017-Sep-25 01:24N 36°48' E 003°05'0 0.0
2017-Sep-25 01:00N 36°48' E 003°05'0 0.0
2017-Sep-24 23:54N 36°48' E 003°05'0 0.0
2017-Sep-24 23:24N 36°48' E 003°05'0 0.0
2017-Sep-24 23:00N 36°48' E 003°05'  

Dump ship's entire track history